createdAt,value
2022-10-13T00:00:54.242Z,50.42
2022-10-13T00:01:54.197Z,49.52
2022-10-13T00:02:54.186Z,47.79
2022-10-13T00:03:54.231Z,48.34
2022-10-13T00:04:54.187Z,48.19
2022-10-13T00:05:54.212Z,47.00
2022-10-13T00:06:54.182Z,47.72
2022-10-13T00:07:54.191Z,50.86
2022-10-13T00:08:54.167Z,52.88
2022-10-13T00:09:54.149Z,51.35
2022-10-13T00:10:54.179Z,50.29
2022-10-13T00:11:54.168Z,50.52
2022-10-13T00:12:54.145Z,51.36
2022-10-13T00:13:54.193Z,48.49
2022-10-13T00:14:54.126Z,48.25
2022-10-13T00:15:54.144Z,48.50
2022-10-13T00:16:54.153Z,57.11
2022-10-13T00:17:54.133Z,49.15
2022-10-13T00:18:54.118Z,47.55
2022-10-13T00:19:54.129Z,46.58
2022-10-13T00:20:54.109Z,46.90
2022-10-13T00:21:54.124Z,47.98
2022-10-13T00:22:54.097Z,49.97
2022-10-13T00:23:54.084Z,48.93
2022-10-13T00:24:54.108Z,46.77
2022-10-13T00:25:54.083Z,46.91
2022-10-13T00:26:54.097Z,47.21
2022-10-13T00:27:54.114Z,48.03
2022-10-13T00:28:54.186Z,47.09
2022-10-13T00:29:54.076Z,46.63
2022-10-13T00:30:54.094Z,46.68
2022-10-13T00:31:54.055Z,46.61
2022-10-13T00:32:54.037Z,50.95
2022-10-13T00:33:54.107Z,52.30
2022-10-13T00:34:54.048Z,47.43
2022-10-13T00:35:54.063Z,46.13
2022-10-13T00:36:54.019Z,46.21
2022-10-13T00:37:54.023Z,46.89
2022-10-13T00:38:54.106Z,47.84
2022-10-13T00:39:54.008Z,46.67
2022-10-13T00:40:54.020Z,49.29
2022-10-13T00:41:53.998Z,47.32
2022-10-13T00:42:53.993Z,49.93
2022-10-13T00:43:54.039Z,54.19
2022-10-13T00:44:54.010Z,48.01
2022-10-13T00:45:54.003Z,47.36
2022-10-13T00:46:54.024Z,48.21
2022-10-13T00:47:54.000Z,46.14
2022-10-13T00:48:53.995Z,45.92
2022-10-13T00:49:53.990Z,46.02
2022-10-13T00:50:53.957Z,45.98
2022-10-13T00:51:53.998Z,46.22
2022-10-13T00:52:53.966Z,47.48
2022-10-13T00:53:53.955Z,46.46
2022-10-13T00:54:53.951Z,46.12
2022-10-13T00:55:54.020Z,46.06
2022-10-13T00:56:53.959Z,46.16
2022-10-13T00:57:53.926Z,48.07
2022-10-13T00:58:53.922Z,51.01
2022-10-13T00:59:53.924Z,49.42
2022-10-13T01:00:53.964Z,50.91
2022-10-13T01:01:53.924Z,47.25
2022-10-13T01:02:53.944Z,46.37
2022-10-13T01:03:53.942Z,46.26
2022-10-13T01:04:53.895Z,46.21
2022-10-13T01:05:53.879Z,46.22
2022-10-13T01:06:53.901Z,46.23
2022-10-13T01:07:53.902Z,46.36
2022-10-13T01:08:53.877Z,46.18
2022-10-13T01:09:53.869Z,46.28
2022-10-13T01:10:53.840Z,49.18
2022-10-13T01:11:53.869Z,47.80
2022-10-13T01:12:53.891Z,48.82
2022-10-13T01:13:53.848Z,47.49
2022-10-13T01:14:53.836Z,47.56
2022-10-13T01:15:53.854Z,48.80
2022-10-13T01:16:53.855Z,46.90
2022-10-13T01:17:53.818Z,46.12
2022-10-13T01:18:53.863Z,46.02
2022-10-13T01:19:53.847Z,45.91
2022-10-13T01:20:53.815Z,46.01
2022-10-13T01:21:53.820Z,47.57
2022-10-13T01:22:53.800Z,47.43
2022-10-13T01:23:53.840Z,46.16
2022-10-13T01:24:53.794Z,47.62
2022-10-13T01:25:54.835Z,50.65
2022-10-13T01:26:53.801Z,52.35
2022-10-13T01:27:53.798Z,50.30
2022-10-13T01:28:53.781Z,49.76
2022-10-13T01:29:53.805Z,50.27
2022-10-13T01:30:53.770Z,49.67
2022-10-13T01:31:53.756Z,46.47
2022-10-13T01:32:53.767Z,46.16
2022-10-13T01:33:53.752Z,45.84
2022-10-13T01:34:53.784Z,45.79
2022-10-13T01:35:53.750Z,45.94
2022-10-13T01:36:53.739Z,48.06
2022-10-13T01:37:53.737Z,50.85
2022-10-13T01:38:53.736Z,49.49
2022-10-13T01:39:53.745Z,47.59
2022-10-13T01:40:53.745Z,46.92
2022-10-13T01:41:53.737Z,47.08
2022-10-13T01:42:53.747Z,47.28
2022-10-13T01:43:53.753Z,47.73
2022-10-13T01:44:53.697Z,50.71
2022-10-13T01:45:53.715Z,47.74
2022-10-13T01:46:53.805Z,50.27
2022-10-13T01:47:53.701Z,49.59
2022-10-13T01:48:53.675Z,49.45
2022-10-13T01:49:53.678Z,47.27
2022-10-13T01:50:53.686Z,47.71
2022-10-13T01:51:53.693Z,46.46
2022-10-13T01:52:53.759Z,46.13
2022-10-13T01:53:53.664Z,48.05
2022-10-13T01:54:53.654Z,49.48
2022-10-13T01:55:53.661Z,47.74
2022-10-13T01:56:53.671Z,46.01
2022-10-13T01:57:53.664Z,46.15
2022-10-13T01:58:53.654Z,47.30
2022-10-13T01:59:53.638Z,47.61
2022-10-13T02:00:53.664Z,50.60
2022-10-13T02:01:53.630Z,47.92
2022-10-13T02:02:53.639Z,48.11
2022-10-13T02:03:53.684Z,47.07
2022-10-13T02:04:53.688Z,46.22
2022-10-13T02:05:53.613Z,46.23
2022-10-13T02:06:54.480Z,47.14
2022-10-13T02:07:53.619Z,48.94
2022-10-13T02:08:53.613Z,48.53
2022-10-13T02:09:53.637Z,47.66
2022-10-13T02:10:53.584Z,47.60
2022-10-13T02:11:53.615Z,49.15
2022-10-13T02:12:53.700Z,46.23
2022-10-13T02:13:53.595Z,48.01
2022-10-13T02:14:53.571Z,48.71
2022-10-13T02:15:53.568Z,47.67
2022-10-13T02:16:53.560Z,46.34
2022-10-13T02:17:53.583Z,48.09
2022-10-13T02:18:53.549Z,50.02
2022-10-13T02:19:53.572Z,46.88
2022-10-13T02:20:53.594Z,47.34
2022-10-13T02:21:53.580Z,48.64
2022-10-13T02:22:53.541Z,48.30
2022-10-13T02:23:53.510Z,47.50
2022-10-13T02:24:53.528Z,46.31
2022-10-13T02:25:53.536Z,46.93
2022-10-13T02:26:53.540Z,47.48
2022-10-13T02:27:53.520Z,46.94
2022-10-13T02:28:53.495Z,47.71
2022-10-13T02:29:53.513Z,50.49
2022-10-13T02:30:53.581Z,46.76
2022-10-13T02:31:53.485Z,46.71
2022-10-13T02:32:53.488Z,48.03
2022-10-13T02:33:53.489Z,47.31
2022-10-13T02:34:53.471Z,47.84
2022-10-13T02:35:53.461Z,49.00
2022-10-13T02:36:53.484Z,48.32
2022-10-13T02:37:53.506Z,46.83
2022-10-13T02:38:53.491Z,49.22
2022-10-13T02:39:53.471Z,49.95
2022-10-13T02:40:53.440Z,47.88
2022-10-13T02:41:53.661Z,47.29
2022-10-13T02:42:53.440Z,50.24
2022-10-13T02:43:53.426Z,50.60
2022-10-13T02:44:53.422Z,47.48
2022-10-13T02:45:53.481Z,48.47
2022-10-13T02:46:53.479Z,49.96
2022-10-13T02:47:53.421Z,49.36
2022-10-13T02:48:53.452Z,49.35
2022-10-13T02:49:53.420Z,50.64
2022-10-13T02:50:53.517Z,46.51
2022-10-13T02:51:53.406Z,47.35
2022-10-13T02:52:53.412Z,49.28
2022-10-13T02:53:53.381Z,49.98
2022-10-13T02:54:53.406Z,48.00
2022-10-13T02:55:53.397Z,49.48
2022-10-13T02:56:53.398Z,50.09
2022-10-13T02:57:53.400Z,48.38
2022-10-13T02:58:53.395Z,50.28
2022-10-13T02:59:53.392Z,51.76
2022-10-13T03:00:53.396Z,48.76
2022-10-13T03:01:53.411Z,47.99
2022-10-13T03:02:53.342Z,50.89
2022-10-13T03:03:53.365Z,49.48
2022-10-13T03:04:53.362Z,53.13
2022-10-13T03:05:53.350Z,51.77
2022-10-13T03:06:53.353Z,52.38
2022-10-13T03:07:53.325Z,51.63
2022-10-13T03:08:53.306Z,49.42
2022-10-13T03:09:53.333Z,52.83
2022-10-13T03:10:53.304Z,52.70
2022-10-13T03:11:53.340Z,49.00
2022-10-13T03:12:53.311Z,50.61
2022-10-13T03:13:53.280Z,53.94
2022-10-13T03:14:53.281Z,49.27
2022-10-13T03:15:53.303Z,51.98
2022-10-13T03:16:53.294Z,55.50
2022-10-13T03:17:53.323Z,51.32
2022-10-13T03:18:53.295Z,54.16
2022-10-13T03:19:53.276Z,59.95
2022-10-13T03:20:53.272Z,55.59
2022-10-13T03:21:53.257Z,57.25
2022-10-13T03:22:53.277Z,54.02
2022-10-13T03:23:53.298Z,52.83
2022-10-13T03:24:53.251Z,54.42
2022-10-13T03:25:53.234Z,52.86
2022-10-13T03:26:53.240Z,55.61
2022-10-13T03:27:53.243Z,51.78
2022-10-13T03:28:53.323Z,53.16
2022-10-13T03:29:53.216Z,54.74
2022-10-13T03:30:53.222Z,55.84
2022-10-13T03:31:53.199Z,55.08
2022-10-13T03:32:53.205Z,55.60
2022-10-13T03:33:53.230Z,53.13
2022-10-13T03:34:53.208Z,52.43
2022-10-13T03:35:53.198Z,51.70
2022-10-13T03:36:53.191Z,53.68
2022-10-13T03:37:53.183Z,54.66
2022-10-13T03:38:53.199Z,54.44
2022-10-13T03:39:53.188Z,56.02
2022-10-13T03:40:53.187Z,56.22
2022-10-13T03:41:53.165Z,50.45
2022-10-13T03:42:53.151Z,53.27
2022-10-13T03:43:53.158Z,54.47
2022-10-13T03:44:56.317Z,50.98
2022-10-13T03:45:54.150Z,52.00
2022-10-13T03:46:53.135Z,56.70
2022-10-13T03:47:53.132Z,55.88
2022-10-13T03:48:53.139Z,55.33
2022-10-13T03:49:53.131Z,57.31
2022-10-13T03:50:53.133Z,55.81
2022-10-13T03:51:53.146Z,53.75
2022-10-13T03:52:53.114Z,54.28
2022-10-13T03:53:53.119Z,56.03
2022-10-13T03:54:53.136Z,54.78
2022-10-13T03:55:53.118Z,53.80
2022-10-13T03:56:53.082Z,53.85
2022-10-13T03:57:54.097Z,52.10
2022-10-13T03:58:53.080Z,52.08
2022-10-13T03:59:53.093Z,57.41
2022-10-13T04:00:53.211Z,54.97
2022-10-13T04:01:53.115Z,58.50
2022-10-13T04:02:53.097Z,58.43
2022-10-13T04:03:53.081Z,57.94
2022-10-13T04:04:53.081Z,58.38
2022-10-13T04:05:53.035Z,55.34
2022-10-13T04:06:53.046Z,56.74
2022-10-13T04:07:53.100Z,52.35
2022-10-13T04:08:53.048Z,56.65
2022-10-13T04:09:53.028Z,57.43
2022-10-13T04:10:53.041Z,55.08
2022-10-13T04:11:53.053Z,55.60
2022-10-13T04:12:53.037Z,57.42
2022-10-13T04:13:53.009Z,55.73
2022-10-13T04:14:53.049Z,54.64
2022-10-13T04:15:53.013Z,55.80
2022-10-13T04:16:53.003Z,53.68
2022-10-13T04:17:53.026Z,56.04
2022-10-13T04:18:52.990Z,57.39
2022-10-13T04:19:53.035Z,54.26
2022-10-13T04:20:52.987Z,55.62
2022-10-13T04:21:53.003Z,57.35
2022-10-13T04:22:52.965Z,56.51
2022-10-13T04:23:52.974Z,56.40
2022-10-13T04:24:52.993Z,58.61
2022-10-13T04:25:52.947Z,58.80
2022-10-13T04:26:52.975Z,58.96
2022-10-13T04:27:52.954Z,57.54
2022-10-13T04:28:53.020Z,58.03
2022-10-13T04:29:52.963Z,57.68
2022-10-13T04:30:52.959Z,58.12
2022-10-13T04:31:52.976Z,57.77
2022-10-13T04:32:52.933Z,57.17
2022-10-13T04:33:52.934Z,58.62
2022-10-13T04:34:52.978Z,57.48
2022-10-13T04:35:52.907Z,56.25
2022-10-13T04:36:52.957Z,52.40
2022-10-13T04:37:52.900Z,57.42
2022-10-13T04:38:52.890Z,57.01
2022-10-13T04:39:52.959Z,53.04
2022-10-13T04:40:52.912Z,53.99
2022-10-13T04:41:52.900Z,56.64
2022-10-13T04:42:52.886Z,57.00
2022-10-13T04:43:52.877Z,57.20
2022-10-13T04:44:52.892Z,56.72
2022-10-13T04:45:52.883Z,56.35
2022-10-13T04:46:52.878Z,55.26
2022-10-13T04:47:52.870Z,56.21
2022-10-13T04:48:52.851Z,56.88
2022-10-13T04:49:52.856Z,54.80
2022-10-13T04:50:52.858Z,54.49
2022-10-13T04:51:52.853Z,54.32
2022-10-13T04:52:52.863Z,54.15
2022-10-13T04:53:52.862Z,57.42
2022-10-13T04:54:52.875Z,57.03
2022-10-13T04:55:52.808Z,53.90
2022-10-13T04:56:52.921Z,55.42
2022-10-13T04:57:52.835Z,54.57
2022-10-13T04:58:52.804Z,58.65
2022-10-13T04:59:52.794Z,55.47
2022-10-13T05:00:52.814Z,56.09
2022-10-13T05:01:52.810Z,57.72
2022-10-13T05:02:52.814Z,58.12
2022-10-13T05:03:52.773Z,58.67
2022-10-13T05:04:52.776Z,56.06
2022-10-13T05:05:52.766Z,56.02
2022-10-13T05:07:16.565Z,56.54
2022-10-13T05:07:54.789Z,58.00
2022-10-13T05:08:52.762Z,58.22
2022-10-13T05:09:52.884Z,53.38
2022-10-13T05:10:52.746Z,56.05
2022-10-13T05:11:52.801Z,57.01
2022-10-13T05:12:52.750Z,56.62
2022-10-13T05:13:52.771Z,56.62
2022-10-13T05:14:52.737Z,58.82
2022-10-13T05:15:52.741Z,58.63
2022-10-13T05:16:52.708Z,57.25
2022-10-13T05:17:52.713Z,59.45
2022-10-13T05:18:52.732Z,57.76
2022-10-13T05:19:52.711Z,60.68
2022-10-13T05:20:52.730Z,58.53
2022-10-13T05:21:52.900Z,56.34
2022-10-13T05:22:52.691Z,59.10
2022-10-13T05:23:52.705Z,57.45
2022-10-13T05:24:52.707Z,54.03
2022-10-13T05:25:52.675Z,55.87
2022-10-13T05:26:52.683Z,57.11
2022-10-13T05:27:52.665Z,58.58
2022-10-13T05:28:52.711Z,58.17
2022-10-13T05:29:52.680Z,58.44
2022-10-13T05:30:52.661Z,55.83
2022-10-13T05:31:52.736Z,57.71
2022-10-13T05:32:54.014Z,56.15
2022-10-13T05:33:53.645Z,57.68
2022-10-13T05:34:52.696Z,58.13
2022-10-13T05:35:52.693Z,57.77
2022-10-13T05:36:52.700Z,60.17
2022-10-13T05:37:53.650Z,57.44
2022-10-13T05:38:52.618Z,57.83
2022-10-13T05:39:52.642Z,59.55
2022-10-13T05:40:52.638Z,57.98
2022-10-13T05:41:52.721Z,58.37
2022-10-13T05:42:52.613Z,56.65
2022-10-13T05:43:52.613Z,57.10
2022-10-13T05:44:52.650Z,55.97
2022-10-13T05:45:52.592Z,57.14
2022-10-13T05:46:52.587Z,56.66
2022-10-13T05:47:52.586Z,56.75
2022-10-13T05:48:52.567Z,57.40
2022-10-13T05:49:52.665Z,57.72
2022-10-13T05:50:52.626Z,54.30
2022-10-13T05:51:52.595Z,56.37
2022-10-13T05:52:52.589Z,57.54
2022-10-13T05:53:56.908Z,56.28
2022-10-13T05:54:54.536Z,59.76
2022-10-13T05:55:52.573Z,56.54
2022-10-13T05:56:52.536Z,58.31
2022-10-13T05:57:52.531Z,55.60
2022-10-13T05:58:52.553Z,56.45
2022-10-13T05:59:52.578Z,56.90
2022-10-13T06:00:52.533Z,58.09
2022-10-13T06:01:52.578Z,57.30
2022-10-13T06:02:52.504Z,55.44
2022-10-13T06:03:52.507Z,53.73
2022-10-13T06:04:52.552Z,56.83
2022-10-13T06:05:53.004Z,58.41
2022-10-13T06:06:52.576Z,58.94
2022-10-13T06:07:52.613Z,55.35
2022-10-13T06:08:53.602Z,57.65
2022-10-13T06:09:52.482Z,55.52
2022-10-13T06:10:52.516Z,57.88
2022-10-13T06:11:52.484Z,56.61
2022-10-13T06:12:52.505Z,55.29
2022-10-13T06:13:52.462Z,57.05
2022-10-13T06:14:52.495Z,56.11
2022-10-13T06:15:53.474Z,55.31
2022-10-13T06:16:52.542Z,56.26
2022-10-13T06:17:52.622Z,56.19
2022-10-13T06:18:52.474Z,56.16
2022-10-13T06:19:52.429Z,55.55
2022-10-13T06:20:52.433Z,55.94
2022-10-13T06:21:52.497Z,56.39
2022-10-13T06:22:52.426Z,53.89
2022-10-13T06:23:52.470Z,57.98
2022-10-13T06:24:52.508Z,57.97
2022-10-13T06:25:52.507Z,58.17
2022-10-13T06:26:52.399Z,56.99
2022-10-13T06:27:52.394Z,55.19
2022-10-13T06:28:56.923Z,56.26
2022-10-13T06:29:54.431Z,57.08
2022-10-13T06:30:52.390Z,55.33
2022-10-13T06:31:52.375Z,55.86
2022-10-13T06:32:52.375Z,56.70
2022-10-13T06:33:53.030Z,54.39
2022-10-13T06:34:52.385Z,54.56
2022-10-13T06:35:52.361Z,56.57
2022-10-13T06:36:52.405Z,54.83
2022-10-13T06:37:52.392Z,56.14
2022-10-13T06:38:52.353Z,57.43
2022-10-13T06:39:52.350Z,53.32
2022-10-13T06:40:52.321Z,54.34
2022-10-13T06:41:52.349Z,54.72
2022-10-13T06:42:52.387Z,53.49
2022-10-13T06:43:52.331Z,55.52
2022-10-13T06:44:52.359Z,53.32
2022-10-13T06:45:52.334Z,53.06
2022-10-13T06:46:52.295Z,53.50
2022-10-13T06:47:52.558Z,57.76
2022-10-13T06:48:52.386Z,57.53
2022-10-13T06:49:52.358Z,55.80
2022-10-13T06:50:52.340Z,57.50
2022-10-13T06:51:52.294Z,52.72
2022-10-13T06:52:52.308Z,57.23
2022-10-13T06:53:52.326Z,54.68
2022-10-13T06:54:52.309Z,56.49
2022-10-13T06:55:52.711Z,53.95
2022-10-13T06:56:53.246Z,54.45
2022-10-13T06:57:52.336Z,55.99
2022-10-13T06:58:52.256Z,55.33
2022-10-13T06:59:52.273Z,53.32
2022-10-13T07:00:52.257Z,56.83
2022-10-13T07:01:52.232Z,55.52
2022-10-13T07:02:52.228Z,54.69
2022-10-13T07:03:52.251Z,55.71
2022-10-13T07:04:52.212Z,53.54
2022-10-13T07:05:52.230Z,54.13
2022-10-13T07:06:52.189Z,53.38
2022-10-13T07:07:52.207Z,54.99
2022-10-13T07:08:52.193Z,56.42
2022-10-13T07:09:52.209Z,52.64
2022-10-13T07:10:52.168Z,53.85
2022-10-13T07:11:52.200Z,53.18
2022-10-13T07:12:52.258Z,53.32
2022-10-13T07:13:52.186Z,54.22
2022-10-13T07:14:52.154Z,54.14
2022-10-13T07:15:52.162Z,53.88
2022-10-13T07:16:52.158Z,52.95
2022-10-13T07:17:52.143Z,51.33
2022-10-13T07:18:52.154Z,54.24
2022-10-13T07:19:57.018Z,50.11
2022-10-13T07:20:54.147Z,55.17
2022-10-13T07:21:52.112Z,59.41
2022-10-13T07:22:52.148Z,57.15
2022-10-13T07:23:52.143Z,55.36
2022-10-13T07:24:52.110Z,55.11
2022-10-13T07:25:52.111Z,55.13
2022-10-13T07:26:52.068Z,56.57
2022-10-13T07:27:52.085Z,55.17
2022-10-13T07:28:52.112Z,55.94
2022-10-13T07:29:52.114Z,55.41
2022-10-13T07:30:53.055Z,57.20
2022-10-13T07:31:52.032Z,54.64
2022-10-13T07:32:52.047Z,54.95
2022-10-13T07:33:52.048Z,56.27
2022-10-13T07:34:52.056Z,56.33
2022-10-13T07:35:52.058Z,55.11
2022-10-13T07:36:52.056Z,54.80
2022-10-13T07:37:52.007Z,55.49
2022-10-13T07:38:52.002Z,55.56
2022-10-13T07:39:51.995Z,54.70
2022-10-13T07:40:51.981Z,55.63
2022-10-13T07:41:52.007Z,53.90
2022-10-13T07:42:52.035Z,54.37
2022-10-13T07:43:51.974Z,56.45
2022-10-13T07:44:51.992Z,56.12
2022-10-13T07:45:51.965Z,53.45
2022-10-13T07:46:52.007Z,52.80
2022-10-13T07:47:51.959Z,55.19
2022-10-13T07:48:52.044Z,55.11
2022-10-13T07:49:51.928Z,53.72
2022-10-13T07:50:51.937Z,55.39
2022-10-13T07:51:52.000Z,55.00
2022-10-13T07:52:52.018Z,55.77
2022-10-13T07:53:51.926Z,55.50
2022-10-13T07:54:51.910Z,56.77
2022-10-13T07:55:52.592Z,54.28
2022-10-13T07:56:51.893Z,56.20
2022-10-13T07:57:51.904Z,52.16
2022-10-13T07:58:51.890Z,52.78
2022-10-13T07:59:51.876Z,53.58
2022-10-13T08:00:51.892Z,53.24
2022-10-13T08:01:51.962Z,53.80
2022-10-13T08:02:51.868Z,56.04
2022-10-13T08:03:51.870Z,55.82
2022-10-13T08:04:51.887Z,55.07
2022-10-13T08:05:51.843Z,53.68
2022-10-13T08:06:51.846Z,56.15
2022-10-13T08:07:54.716Z,53.40
2022-10-13T08:08:54.007Z,53.38
2022-10-13T08:09:51.858Z,56.93
2022-10-13T08:10:51.891Z,53.01
2022-10-13T08:11:51.816Z,54.34
2022-10-13T08:12:51.864Z,52.23
2022-10-13T08:13:51.807Z,53.91
2022-10-13T08:14:51.900Z,54.82
2022-10-13T08:15:51.858Z,53.57
2022-10-13T08:16:53.688Z,54.16
2022-10-13T08:17:51.807Z,53.74
2022-10-13T08:18:51.782Z,55.40
2022-10-13T08:19:51.750Z,53.58
2022-10-13T08:20:55.563Z,50.42
2022-10-13T08:22:00.435Z,52.00
2022-10-13T08:22:53.753Z,53.56
2022-10-13T08:23:51.741Z,54.89
2022-10-13T08:24:51.738Z,52.97
2022-10-13T08:25:51.751Z,50.54
2022-10-13T08:26:51.754Z,52.88
2022-10-13T08:27:54.730Z,56.55
2022-10-13T08:29:23.087Z,54.48
2022-10-13T08:29:53.741Z,53.59
2022-10-13T08:30:51.853Z,51.86
2022-10-13T08:31:51.960Z,49.69
2022-10-13T08:32:51.704Z,54.97
2022-10-13T08:33:51.695Z,53.27
2022-10-13T08:34:51.668Z,53.96
2022-10-13T08:35:51.691Z,55.38
2022-10-13T08:36:51.702Z,53.39
2022-10-13T08:37:51.686Z,54.07
2022-10-13T08:38:51.661Z,53.49
2022-10-13T08:39:51.662Z,51.53
2022-10-13T08:40:51.637Z,53.65
2022-10-13T08:41:51.662Z,53.83
2022-10-13T08:42:53.631Z,54.43
2022-10-13T08:44:33.025Z,54.20
2022-10-13T08:45:53.684Z,50.36
2022-10-13T08:46:51.814Z,53.92
2022-10-13T08:47:51.595Z,55.79
2022-10-13T08:48:51.605Z,58.63
2022-10-13T08:49:54.337Z,56.75
2022-10-13T08:50:52.600Z,53.97
2022-10-13T08:51:51.614Z,53.37
2022-10-13T08:52:51.631Z,54.07
2022-10-13T08:53:51.575Z,54.17
2022-10-13T08:54:51.560Z,53.38
2022-10-13T08:55:51.597Z,52.95
2022-10-13T08:56:51.656Z,53.54
2022-10-13T08:57:51.539Z,51.92
2022-10-13T08:58:51.551Z,53.54
2022-10-13T08:59:51.507Z,51.76
2022-10-13T09:00:51.514Z,54.32
2022-10-13T09:01:51.586Z,57.65
2022-10-13T09:02:51.484Z,57.68
2022-10-13T09:03:52.617Z,58.52
2022-10-13T09:04:52.029Z,54.38
2022-10-13T09:05:51.479Z,54.53
2022-10-13T09:06:51.485Z,54.94
2022-10-13T09:07:51.485Z,55.58
2022-10-13T09:08:51.510Z,56.29
2022-10-13T09:09:51.488Z,51.36
2022-10-13T09:10:51.491Z,54.60
2022-10-13T09:11:52.574Z,52.57
2022-10-13T09:12:51.470Z,53.27
2022-10-13T09:13:51.436Z,55.86
2022-10-13T09:14:51.467Z,54.79
2022-10-13T09:15:51.451Z,53.35
2022-10-13T09:16:51.437Z,55.63
2022-10-13T09:17:51.408Z,54.58
2022-10-13T09:18:51.417Z,53.53
2022-10-13T09:19:51.446Z,54.66
2022-10-13T09:20:51.420Z,52.37
2022-10-13T09:21:51.403Z,54.66
2022-10-13T09:22:51.384Z,54.33
2022-10-13T09:23:51.366Z,57.78
2022-10-13T09:24:51.366Z,55.25
2022-10-13T09:25:51.419Z,53.86
2022-10-13T09:26:51.379Z,56.67
2022-10-13T09:27:51.338Z,52.85
2022-10-13T09:28:51.389Z,55.19
2022-10-13T09:29:51.345Z,55.14
2022-10-13T09:30:51.378Z,55.46
2022-10-13T09:31:51.359Z,54.94
2022-10-13T09:32:51.314Z,56.13
2022-10-13T09:33:51.306Z,52.99
2022-10-13T09:34:51.310Z,52.40
2022-10-13T09:35:51.285Z,55.12
2022-10-13T09:36:51.370Z,54.94
2022-10-13T09:37:51.306Z,54.65
2022-10-13T09:38:51.297Z,53.94
2022-10-13T09:39:51.357Z,51.45
2022-10-13T09:40:51.264Z,51.37
2022-10-13T09:41:51.284Z,52.80
2022-10-13T09:42:51.249Z,51.08
2022-10-13T09:43:51.294Z,56.68
2022-10-13T09:44:51.346Z,53.34
2022-10-13T09:45:51.229Z,52.92
2022-10-13T09:46:51.256Z,51.06
2022-10-13T09:47:51.218Z,54.71
2022-10-13T09:48:51.221Z,53.35
2022-10-13T09:49:51.229Z,52.36
2022-10-13T09:50:51.242Z,52.81
2022-10-13T09:51:51.191Z,53.11
2022-10-13T09:52:51.215Z,53.95
2022-10-13T09:53:51.176Z,53.08
2022-10-13T09:54:51.178Z,55.45
2022-10-13T09:55:51.198Z,54.22
2022-10-13T09:56:51.175Z,54.84
2022-10-13T09:57:51.129Z,54.57
2022-10-13T09:58:51.146Z,55.31
2022-10-13T09:59:51.243Z,52.98
2022-10-13T10:00:51.153Z,55.52
2022-10-13T10:01:51.136Z,54.98
2022-10-13T10:02:51.146Z,54.91
2022-10-13T10:03:51.174Z,52.09
2022-10-13T10:04:51.114Z,50.45
2022-10-13T10:05:51.118Z,55.77
2022-10-13T10:06:51.084Z,52.00
2022-10-13T10:07:51.115Z,52.70
2022-10-13T10:09:02.648Z,54.26
2022-10-13T10:09:53.046Z,54.30
2022-10-13T10:10:51.077Z,53.44
2022-10-13T10:11:51.132Z,52.58
2022-10-13T10:12:51.016Z,53.20
2022-10-13T10:13:51.047Z,55.85
2022-10-13T10:14:51.029Z,55.74
2022-10-13T10:15:51.038Z,54.97
2022-10-13T10:16:51.058Z,55.71
2022-10-13T10:17:50.995Z,54.46
2022-10-13T10:18:55.024Z,57.49
2022-10-13T10:19:53.489Z,54.58
2022-10-13T10:20:51.014Z,53.69
2022-10-13T10:21:50.968Z,55.43
2022-10-13T10:22:50.977Z,55.51
2022-10-13T10:23:50.985Z,53.56
2022-10-13T10:24:50.961Z,53.58
2022-10-13T10:25:50.933Z,54.56
2022-10-13T10:26:50.960Z,53.90
2022-10-13T10:27:50.924Z,54.52
2022-10-13T10:28:51.070Z,53.86
2022-10-13T10:29:50.892Z,54.01
2022-10-13T10:30:50.926Z,55.60
2022-10-13T10:31:50.862Z,53.38
2022-10-13T10:32:51.885Z,56.52
2022-10-13T10:33:50.897Z,54.33
2022-10-13T10:34:50.849Z,55.10
2022-10-13T10:35:50.976Z,55.69
2022-10-13T10:36:50.870Z,54.87
2022-10-13T10:37:50.845Z,56.71
2022-10-13T10:38:50.897Z,55.10
2022-10-13T10:39:50.835Z,58.56
2022-10-13T10:40:50.836Z,54.21
2022-10-13T10:41:50.812Z,53.09
2022-10-13T10:42:52.332Z,55.57
2022-10-13T10:43:51.802Z,57.54
2022-10-13T10:44:50.787Z,55.79
2022-10-13T10:45:50.804Z,55.97
2022-10-13T10:46:50.767Z,55.86
2022-10-13T10:47:50.757Z,55.55
2022-10-13T10:48:50.791Z,53.50
2022-10-13T10:49:50.766Z,53.73
2022-10-13T10:50:50.877Z,54.32
2022-10-13T10:51:50.743Z,55.69
2022-10-13T10:52:50.756Z,53.93
2022-10-13T10:53:51.017Z,53.23
2022-10-13T10:54:50.716Z,52.73
2022-10-13T10:55:50.724Z,56.87
2022-10-13T10:56:50.694Z,54.42
2022-10-13T10:57:50.677Z,56.67
2022-10-13T10:58:50.665Z,54.17
2022-10-13T10:59:50.663Z,54.00
2022-10-13T11:00:50.683Z,54.28
2022-10-13T11:01:50.713Z,54.55
2022-10-13T11:02:50.638Z,55.59
2022-10-13T11:03:50.655Z,56.20
2022-10-13T11:04:50.639Z,51.43
2022-10-13T11:05:50.624Z,54.14
2022-10-13T11:06:50.650Z,53.93
2022-10-13T11:07:50.656Z,53.02
2022-10-13T11:08:50.587Z,51.56
2022-10-13T11:09:50.676Z,53.50
2022-10-13T11:10:50.606Z,52.29
2022-10-13T11:11:50.571Z,51.94
2022-10-13T11:12:50.609Z,53.51
2022-10-13T11:13:50.697Z,54.80
2022-10-13T11:14:50.576Z,55.96
2022-10-13T11:15:50.570Z,55.85
2022-10-13T11:16:50.577Z,54.20
2022-10-13T11:17:50.545Z,55.70
2022-10-13T11:18:50.526Z,56.12
2022-10-13T11:19:50.544Z,52.57
2022-10-13T11:20:52.796Z,54.36
2022-10-13T11:21:50.520Z,55.38
2022-10-13T11:22:51.100Z,56.20
2022-10-13T11:23:50.478Z,55.16
2022-10-13T11:24:50.684Z,54.17
2022-10-13T11:25:50.469Z,53.08
2022-10-13T11:26:50.474Z,52.34
2022-10-13T11:27:50.455Z,58.19
2022-10-13T11:28:50.538Z,53.34
2022-10-13T11:29:50.431Z,56.55
2022-10-13T11:30:50.693Z,55.87
2022-10-13T11:31:50.472Z,57.65
2022-10-13T11:32:50.436Z,52.32
2022-10-13T11:33:50.404Z,54.68
2022-10-13T11:34:50.384Z,56.02
2022-10-13T11:35:50.398Z,54.39
2022-10-13T11:36:51.135Z,55.08
2022-10-13T11:38:05.621Z,52.41
2022-10-13T11:38:52.358Z,54.19
2022-10-13T11:39:50.367Z,51.56
2022-10-13T11:40:50.364Z,53.89
2022-10-13T11:41:50.338Z,53.65
2022-10-13T11:42:52.294Z,55.50
2022-10-13T11:43:51.333Z,54.61
2022-10-13T11:44:50.324Z,57.15
2022-10-13T11:45:50.312Z,53.41
2022-10-13T11:46:50.305Z,55.06
2022-10-13T11:47:50.335Z,53.63
2022-10-13T11:48:50.346Z,54.61
2022-10-13T11:49:50.283Z,52.96
2022-10-13T11:50:50.307Z,54.93
2022-10-13T11:51:50.256Z,52.39
2022-10-13T11:52:50.356Z,53.22
2022-10-13T11:53:50.302Z,53.30
2022-10-13T11:54:50.243Z,52.53
2022-10-13T11:55:50.292Z,51.63
2022-10-13T11:56:50.234Z,55.20
2022-10-13T11:57:50.224Z,53.79
2022-10-13T11:58:50.196Z,53.09
2022-10-13T11:59:50.198Z,55.38
2022-10-13T12:00:50.242Z,54.65
2022-10-13T12:01:50.203Z,55.17
2022-10-13T12:02:50.258Z,54.05
2022-10-13T12:03:50.182Z,56.28
2022-10-13T12:04:50.183Z,56.13
2022-10-13T12:05:50.189Z,55.04
2022-10-13T12:06:50.191Z,53.71
2022-10-13T12:07:50.247Z,56.87
2022-10-13T12:08:50.231Z,54.44
2022-10-13T12:09:50.166Z,55.46
2022-10-13T12:10:50.132Z,54.36
2022-10-13T12:11:50.218Z,53.56
2022-10-13T12:12:50.175Z,54.24
2022-10-13T12:13:50.117Z,53.43
2022-10-13T12:14:50.108Z,56.42
2022-10-13T12:15:50.093Z,55.93
2022-10-13T12:16:50.189Z,52.78
2022-10-13T12:17:50.116Z,54.41
2022-10-13T12:18:50.079Z,57.64
2022-10-13T12:19:50.074Z,61.81
2022-10-13T12:20:50.067Z,59.86
2022-10-13T12:21:50.123Z,59.68
2022-10-13T12:22:50.205Z,59.89
2022-10-13T12:23:50.083Z,60.12
2022-10-13T12:24:50.032Z,60.91
2022-10-13T12:25:50.064Z,60.42
2022-10-13T12:26:50.054Z,59.87
2022-10-13T12:27:50.032Z,59.09
2022-10-13T12:28:50.223Z,54.91
2022-10-13T12:29:50.014Z,56.41
2022-10-13T12:30:49.995Z,56.24
2022-10-13T12:31:49.988Z,55.91
2022-10-13T12:32:50.001Z,54.66
2022-10-13T12:33:49.994Z,55.71
2022-10-13T12:34:49.987Z,55.30
2022-10-13T12:35:49.985Z,53.62
2022-10-13T12:36:50.005Z,53.81
2022-10-13T12:37:50.019Z,56.11
2022-10-13T12:38:49.983Z,58.10
2022-10-13T12:39:49.970Z,55.87
2022-10-13T12:40:49.934Z,55.99
2022-10-13T12:41:49.903Z,56.49
2022-10-13T12:42:49.909Z,56.65
2022-10-13T12:43:49.902Z,56.46
2022-10-13T12:44:49.910Z,61.93
2022-10-13T12:45:49.928Z,57.62
2022-10-13T12:46:49.891Z,59.22
2022-10-13T12:47:49.871Z,56.41
2022-10-13T12:48:49.920Z,54.84
2022-10-13T12:49:49.925Z,54.36
2022-10-13T12:50:49.881Z,58.70
2022-10-13T12:51:49.863Z,58.35
2022-10-13T12:52:49.843Z,55.12
2022-10-13T12:53:49.863Z,57.54